메인 페이지
METAR-TAF:

METAR-TAF

공항 :

잭슨빌, 플로리다, 미국

위도: 30-29-40N, 경도: 081-41-36W, 고도: 9m

현재 날씨관측

예보는 50분 전, 17:56시(UTC)에 발표되었습니다.
여러 방향의 바람 4kt
온도 28°C
습도 28%
기압 1014 hPa
시정: 16.1km
고도 15000ft 상공 구름 조금
고도 20000ft 상공 구름 조금
고도 25000ft 상공 구름 보통

METAR: KJAX 041756Z VRB04KT 10SM FEW150 FEW200 SCT250 28/08 A2994 RMK AO2 SLP138 T02780083 10283 20133 58015

시각: 14:46 (18:46 UTC)

예보

예보는 1 시간 26분 전, 17:20시(UTC)에 발표되었습니다.
예보 대상 시간: 04일 18시부터 05일 18시까지 (UTC)
kt
시정: 10km
고도 3000ft 상공 구름 조금
고도 12000ft 상공 구름 보통
고도 25000ft 상공 구름 많음
04일 2000시부터 (UTC)
8kt
시정: 10km
고도 10000ft 상공 구름 보통
고도 25000ft 상공 구름 많음
05일 0200시부터 (UTC)
여러 방향의 바람 2kt
시정: 10km
고도 10000ft 상공 구름 보통
고도 25000ft 상공 구름 많음
05일 0800시부터 (UTC)
여러 방향의 바람 2kt
시정: 10km
고도 5000ft 상공 구름 보통
고도 10000ft 상공 흐림
05일 1200시부터 (UTC)
6kt
시정: 10km
고도 2500ft 상공 구름 많음
고도 5000ft 상공 흐림
시계 내 소나기
확률 30%
05일 14시부터 05일 18시까지 (UTC)
시정: 10km
고도 3000ft 상공 흐림
약한비

TAF: KJAX 041720Z 0418/0518 00000KT P6SM FEW030 SCT120 BKN250 FM042000 09008KT P6SM SCT100 BKN250 FM050200 VRB02KT P6SM SCT100 BKN250 FM050800 VRB02KT P6SM SCT050 OVC100 FM051200 09006KT P6SM VCSH BKN025 OVC050 PROB30 0514/0518 P6SM -RA OVC030

4,000개 이상의 공항 관측 자료 및 예보 (METAR 및 TAF 보고).

지도상에서 검색 가능한 기상관측소가 노란 점과 빨간 점으로 표시되어 있습니다.

기상관측소 명을 보려면 표시 위로 마우스를 이동하세요.

날씨 관측과 예보를 보려면 클릭하세요.

지도 변경 : 확대하려면 엑스 표시가 있는 녹색 버튼, 축소하려면 빼기 표시가 있는 녹색 버튼, 다음 페이지의 지도를 보려면 녹색 화살표를 클릭하세요.


METAR-TAF: